createdAt,value
2022-08-08T00:00:54.154Z,19.27
2022-08-08T00:03:32.257Z,17.63
2022-08-08T00:06:28.644Z,14.55
2022-08-08T00:09:17.128Z,15.93
2022-08-08T00:12:10.837Z,17.15
2022-08-08T00:15:00.577Z,17.15
2022-08-08T00:18:03.553Z,16.98
2022-08-08T00:20:44.826Z,15.68
2022-08-08T00:23:42.542Z,15.90
2022-08-08T00:26:26.488Z,16.38
2022-08-08T00:29:44.718Z,14.40
2022-08-08T00:32:35.387Z,15.52
2022-08-08T00:35:21.318Z,21.20
2022-08-08T00:38:44.251Z,15.52
2022-08-08T00:41:54.450Z,15.63
2022-08-08T00:44:56.645Z,16.40
2022-08-08T00:51:09.746Z,19.17
2022-08-08T00:54:13.265Z,15.60
2022-08-08T00:56:45.519Z,20.15
2022-08-08T01:00:08.922Z,21.35
2022-08-08T01:04:02.154Z,18.30
2022-08-08T01:06:47.549Z,17.38
2022-08-08T01:09:52.129Z,21.38
2022-08-08T01:12:45.480Z,20.00
2022-08-08T01:15:54.672Z,20.75
2022-08-08T01:19:13.989Z,19.63
2022-08-08T01:23:03.086Z,20.20
2022-08-08T01:25:57.441Z,23.65
2022-08-08T01:29:35.403Z,20.75
2022-08-08T01:32:57.974Z,18.65
2022-08-08T01:36:01.048Z,19.80
2022-08-08T01:38:55.520Z,20.77
2022-08-08T01:41:48.110Z,17.33
2022-08-08T01:44:26.876Z,17.35
2022-08-08T01:48:23.493Z,20.25
2022-08-08T01:52:29.488Z,17.67
2022-08-08T01:55:26.566Z,19.95
2022-08-08T01:58:38.187Z,21.15
2022-08-08T02:01:54.839Z,21.15
2022-08-08T02:04:43.035Z,17.85
2022-08-08T02:07:25.493Z,18.98
2022-08-08T02:10:37.349Z,20.75
2022-08-08T02:13:53.623Z,18.92
2022-08-08T02:16:33.531Z,18.55
2022-08-08T02:20:07.585Z,17.58
2022-08-08T02:22:56.863Z,18.20
2022-08-08T02:25:43.546Z,22.50
2022-08-08T02:28:42.734Z,19.35
2022-08-08T02:32:04.745Z,21.08
2022-08-08T02:35:07.636Z,16.98
2022-08-08T02:37:53.443Z,19.50
2022-08-08T02:40:49.931Z,18.35
2022-08-08T02:44:38.106Z,19.95
2022-08-08T02:46:44.025Z,17.77
2022-08-08T02:49:50.843Z,17.05
2022-08-08T02:52:54.775Z,19.70
2022-08-08T02:55:57.687Z,22.00
2022-08-08T02:59:36.909Z,16.33
2022-08-08T03:02:29.899Z,16.52
2022-08-08T03:05:18.915Z,16.85
2022-08-08T03:08:38.435Z,16.42
2022-08-08T03:12:03.130Z,18.85
2022-08-08T03:16:03.866Z,20.33
2022-08-08T03:18:13.750Z,18.00
2022-08-08T03:20:51.449Z,19.83
2022-08-08T03:23:21.257Z,17.92
2022-08-08T03:25:50.175Z,16.80
2022-08-08T03:28:41.120Z,18.38
2022-08-08T03:31:26.848Z,19.17
2022-08-08T03:34:04.902Z,19.90
2022-08-08T03:36:33.298Z,20.20
2022-08-08T03:39:15.278Z,18.52
2022-08-08T03:42:28.151Z,18.23
2022-08-08T03:44:35.409Z,19.80
2022-08-08T03:47:14.177Z,18.55
2022-08-08T03:49:57.185Z,18.10
2022-08-08T03:52:31.694Z,17.80
2022-08-08T03:55:09.544Z,19.75
2022-08-08T03:58:30.032Z,21.20
2022-08-08T04:00:27.678Z,18.77
2022-08-08T04:03:03.845Z,16.23
2022-08-08T04:05:37.469Z,17.63
2022-08-08T04:11:11.015Z,16.95
2022-08-08T04:14:03.438Z,16.70
2022-08-08T04:16:38.858Z,18.50
2022-08-08T04:19:23.485Z,17.70
2022-08-08T04:21:51.192Z,16.27
2022-08-08T04:24:22.413Z,19.60
2022-08-08T04:26:57.227Z,18.98
2022-08-08T04:29:25.342Z,17.63
2022-08-08T04:31:59.029Z,20.63
2022-08-08T04:34:31.729Z,16.58
2022-08-08T04:36:59.254Z,16.17
2022-08-08T04:40:05.663Z,18.10
2022-08-08T04:42:15.768Z,15.38
2022-08-08T04:44:47.546Z,16.38
2022-08-08T04:47:16.592Z,18.27
2022-08-08T04:49:59.035Z,16.27
2022-08-08T04:52:33.606Z,17.48
2022-08-08T04:55:01.535Z,15.75
2022-08-08T04:57:28.904Z,16.98
2022-08-08T04:59:58.066Z,17.60
2022-08-08T05:02:28.604Z,16.23
2022-08-08T05:04:59.528Z,18.63
2022-08-08T05:07:42.150Z,15.23
2022-08-08T05:10:12.892Z,18.27
2022-08-08T05:12:43.040Z,17.75
2022-08-08T05:16:49.380Z,19.20
2022-08-08T05:18:14.383Z,19.55
2022-08-08T05:20:49.797Z,14.85
2022-08-08T05:23:17.846Z,18.02
2022-08-08T05:25:46.785Z,17.45
2022-08-08T05:28:14.941Z,18.05
2022-08-08T05:30:47.330Z,18.83
2022-08-08T05:33:16.843Z,22.20
2022-08-08T05:35:46.246Z,19.70
2022-08-08T05:38:31.691Z,15.30
2022-08-08T05:41:03.464Z,17.42
2022-08-08T05:44:02.538Z,18.77
2022-08-08T05:46:24.436Z,15.85
2022-08-08T05:48:54.435Z,18.90
2022-08-08T05:51:22.489Z,16.02
2022-08-08T05:54:24.482Z,12.65
2022-08-08T05:56:42.293Z,19.45
2022-08-08T05:59:59.975Z,16.15
2022-08-08T06:02:40.666Z,14.60
2022-08-08T06:05:24.356Z,16.02
2022-08-08T06:08:10.384Z,17.15
2022-08-08T06:10:52.672Z,16.60
2022-08-08T06:13:22.633Z,17.35
2022-08-08T06:15:54.518Z,15.43
2022-08-08T06:18:25.946Z,13.55
2022-08-08T06:21:11.281Z,15.07
2022-08-08T06:23:52.767Z,18.95
2022-08-08T06:26:43.198Z,12.48
2022-08-08T06:29:48.617Z,13.35
2022-08-08T06:32:17.198Z,11.88
2022-08-08T06:36:08.244Z,8.18
2022-08-08T06:38:37.129Z,12.48
2022-08-08T06:41:12.348Z,12.45
2022-08-08T06:43:56.867Z,6.72
2022-08-08T06:46:24.599Z,10.32
2022-08-08T06:48:58.261Z,13.30
2022-08-08T06:51:45.826Z,9.13
2022-08-08T06:54:13.537Z,7.22
2022-08-08T06:56:41.937Z,11.05
2022-08-08T06:59:14.169Z,8.65
2022-08-08T07:02:27.856Z,7.47
2022-08-08T07:05:11.867Z,5.53
2022-08-08T07:07:53.031Z,7.60
2022-08-08T07:10:25.457Z,9.60
2022-08-08T07:12:55.230Z,7.60
2022-08-08T07:16:03.959Z,7.10
2022-08-08T07:18:40.842Z,7.40
2022-08-08T07:21:18.439Z,5.95
2022-08-08T07:24:03.512Z,6.47
2022-08-08T07:26:35.427Z,7.53
2022-08-08T07:29:05.623Z,10.23
2022-08-08T07:31:35.558Z,7.65
2022-08-08T07:34:09.249Z,9.18
2022-08-08T07:36:48.362Z,7.47
2022-08-08T07:39:29.299Z,4.70
2022-08-08T07:42:04.095Z,8.32
2022-08-08T07:44:37.369Z,7.57
2022-08-08T07:47:09.100Z,5.28
2022-08-08T07:49:40.030Z,7.55
2022-08-08T07:52:13.440Z,7.45
2022-08-08T07:55:04.284Z,8.38
2022-08-08T07:57:50.036Z,9.68
2022-08-08T08:00:18.016Z,10.45
2022-08-08T08:03:13.827Z,7.03
2022-08-08T08:05:51.796Z,7.43
2022-08-08T08:08:26.060Z,9.55
2022-08-08T08:10:57.989Z,9.35
2022-08-08T08:14:07.891Z,4.80
2022-08-08T08:16:41.138Z,6.10
2022-08-08T08:19:10.347Z,6.85
2022-08-08T08:21:52.910Z,8.00
2022-08-08T08:24:32.182Z,3.67
2022-08-08T08:27:03.441Z,5.57
2022-08-08T08:29:31.351Z,5.37
2022-08-08T08:32:03.277Z,7.75
2022-08-08T08:34:33.723Z,7.63
2022-08-08T08:37:07.796Z,4.93
2022-08-08T08:39:59.793Z,4.32
2022-08-08T08:42:32.025Z,4.80
2022-08-08T08:45:10.385Z,5.38
2022-08-08T08:47:58.170Z,5.68
2022-08-08T08:50:33.664Z,4.45
2022-08-08T08:53:54.205Z,5.75
2022-08-08T08:56:02.042Z,4.10
2022-08-08T08:58:46.530Z,4.70
2022-08-08T09:01:19.862Z,4.85
2022-08-08T09:03:50.391Z,5.53
2022-08-08T09:06:28.645Z,4.37
2022-08-08T09:09:35.222Z,5.88
2022-08-08T09:12:08.612Z,5.95
2022-08-08T09:14:42.384Z,4.18
2022-08-08T09:17:18.349Z,4.13
2022-08-08T09:21:56.670Z,3.90
2022-08-08T09:22:35.949Z,3.22
2022-08-08T09:25:04.657Z,6.32
2022-08-08T09:27:55.769Z,3.22
2022-08-08T09:30:22.020Z,4.03
2022-08-08T09:33:54.942Z,5.03
2022-08-08T09:35:50.130Z,4.50
2022-08-08T09:38:52.582Z,4.53
2022-08-08T09:42:13.960Z,3.92
2022-08-08T09:44:36.516Z,3.63
2022-08-08T09:47:25.799Z,3.28
2022-08-08T09:50:04.649Z,6.30
2022-08-08T09:52:58.478Z,4.57
2022-08-08T09:56:03.749Z,6.35
2022-08-08T09:58:27.775Z,5.28
2022-08-08T10:01:14.673Z,5.18
2022-08-08T10:03:43.208Z,3.70
2022-08-08T10:06:19.456Z,5.10
2022-08-08T10:08:54.715Z,6.53
2022-08-08T10:12:28.181Z,6.15
2022-08-08T10:14:28.318Z,4.45
2022-08-08T10:17:00.422Z,4.25
2022-08-08T10:19:46.319Z,2.90
2022-08-08T10:22:27.618Z,5.50
2022-08-08T10:25:15.863Z,3.67
2022-08-08T10:27:44.635Z,3.95
2022-08-08T10:30:16.794Z,3.47
2022-08-08T10:33:00.943Z,4.45
2022-08-08T10:36:08.371Z,3.65
2022-08-08T10:38:21.020Z,4.77
2022-08-08T10:40:53.517Z,5.00
2022-08-08T10:43:22.858Z,3.72
2022-08-08T10:45:55.685Z,4.18
2022-08-08T10:48:37.385Z,5.68
2022-08-08T10:51:21.742Z,4.05
2022-08-08T10:53:58.865Z,4.20
2022-08-08T10:56:35.006Z,4.22
2022-08-08T10:59:08.207Z,6.20
2022-08-08T11:01:38.978Z,3.95
2022-08-08T11:04:10.763Z,3.63
2022-08-08T11:06:41.845Z,3.15
2022-08-08T11:09:21.178Z,3.25
2022-08-08T11:12:04.539Z,3.42
2022-08-08T11:14:53.015Z,6.00
2022-08-08T11:17:59.965Z,5.55
2022-08-08T11:20:13.631Z,6.07
2022-08-08T11:22:41.556Z,5.32
2022-08-08T11:25:14.045Z,6.05
2022-08-08T11:27:44.562Z,7.95
2022-08-08T11:30:24.249Z,4.03
2022-08-08T11:32:55.439Z,5.80
2022-08-08T11:35:37.720Z,4.72
2022-08-08T11:38:39.646Z,5.18
2022-08-08T11:40:57.253Z,4.30
2022-08-08T11:43:25.954Z,4.97
2022-08-08T11:46:17.427Z,5.82
2022-08-08T11:48:47.247Z,4.07
2022-08-08T11:51:29.992Z,3.63
2022-08-08T11:54:02.648Z,4.47
2022-08-08T11:56:35.620Z,7.68
2022-08-08T11:59:11.091Z,5.10
2022-08-08T12:01:38.965Z,5.15
2022-08-08T12:04:08.208Z,3.38
2022-08-08T12:06:35.641Z,3.55
2022-08-08T12:09:08.316Z,6.57
2022-08-08T12:11:41.810Z,3.97
2022-08-08T12:14:10.957Z,5.13
2022-08-08T12:16:48.934Z,6.85
2022-08-08T12:19:31.257Z,6.55
2022-08-08T12:22:09.311Z,4.97
2022-08-08T12:24:46.137Z,4.30
2022-08-08T12:27:21.605Z,5.63
2022-08-08T12:29:59.814Z,3.92
2022-08-08T12:32:31.240Z,4.88
2022-08-08T12:35:04.895Z,6.13
2022-08-08T12:38:01.678Z,5.68
2022-08-08T12:40:56.815Z,6.60
2022-08-08T12:43:31.963Z,5.53
2022-08-08T12:46:19.243Z,3.15
2022-08-08T12:49:21.926Z,4.93
2022-08-08T12:51:58.425Z,5.05
2022-08-08T12:54:40.830Z,9.63
2022-08-08T12:57:17.918Z,6.10
2022-08-08T13:00:05.117Z,4.63
2022-08-08T13:02:36.238Z,4.60
2022-08-08T13:05:25.636Z,3.10
2022-08-08T13:08:03.558Z,5.10
2022-08-08T13:10:36.378Z,8.15
2022-08-08T13:13:28.407Z,5.28
2022-08-08T13:16:25.567Z,4.13
2022-08-08T13:19:06.587Z,2.72
2022-08-08T13:21:55.403Z,6.22
2022-08-08T13:24:42.284Z,7.85
2022-08-08T13:27:17.413Z,3.53
2022-08-08T13:29:56.012Z,5.47
2022-08-08T13:32:28.611Z,4.78
2022-08-08T13:34:57.988Z,4.55
2022-08-08T13:37:27.970Z,6.68
2022-08-08T13:40:17.544Z,5.28
2022-08-08T13:42:46.038Z,4.18
2022-08-08T13:45:22.290Z,7.80
2022-08-08T13:48:02.005Z,4.15
2022-08-08T13:50:43.189Z,6.32
2022-08-08T13:53:36.125Z,4.43
2022-08-08T13:56:11.681Z,4.43
2022-08-08T13:58:57.727Z,4.30
2022-08-08T14:01:41.836Z,4.15
2022-08-08T14:04:21.948Z,4.73
2022-08-08T14:06:49.695Z,3.35
2022-08-08T14:09:24.734Z,4.05
2022-08-08T14:12:00.883Z,5.72
2022-08-08T14:14:42.769Z,4.43
2022-08-08T14:17:11.850Z,2.38
2022-08-08T14:19:57.510Z,2.47
2022-08-08T14:22:38.026Z,3.08
2022-08-08T14:25:17.643Z,5.82
2022-08-08T14:27:59.755Z,4.43
2022-08-08T14:30:34.552Z,4.65
2022-08-08T14:33:02.648Z,5.50
2022-08-08T14:35:43.133Z,4.55
2022-08-08T14:38:33.299Z,4.68
2022-08-08T14:41:10.139Z,7.55
2022-08-08T14:44:10.203Z,4.07
2022-08-08T14:46:36.402Z,4.43
2022-08-08T14:49:20.803Z,4.03
2022-08-08T14:52:08.342Z,5.38
2022-08-08T14:54:49.001Z,3.67
2022-08-08T14:57:17.244Z,4.93
2022-08-08T14:59:50.984Z,4.22
2022-08-08T15:02:30.657Z,5.90
2022-08-08T15:05:07.987Z,4.72
2022-08-08T15:07:39.410Z,4.45
2022-08-08T15:10:09.336Z,5.32
2022-08-08T15:12:38.055Z,5.50
2022-08-08T15:15:09.788Z,3.60
2022-08-08T15:17:41.903Z,6.47
2022-08-08T15:20:13.917Z,4.22
2022-08-08T15:22:42.619Z,3.22
2022-08-08T15:25:17.931Z,3.10
2022-08-08T15:28:04.452Z,5.63
2022-08-08T15:30:45.895Z,2.92
2022-08-08T15:33:35.186Z,5.90
2022-08-08T15:36:03.892Z,4.40
2022-08-08T15:38:31.285Z,3.60
2022-08-08T15:40:59.732Z,2.40
2022-08-08T15:43:35.285Z,2.85
2022-08-08T15:46:04.317Z,3.92
2022-08-08T15:48:31.720Z,2.85
2022-08-08T15:51:03.071Z,2.90
2022-08-08T15:53:48.946Z,4.00
2022-08-08T15:56:20.111Z,4.55
2022-08-08T15:58:49.062Z,2.75
2022-08-08T16:01:18.021Z,3.22
2022-08-08T16:03:46.007Z,2.58
2022-08-08T16:06:28.793Z,5.32
2022-08-08T16:13:00.157Z,5.22
2022-08-08T16:13:02.080Z,5.03
2022-08-08T16:14:33.857Z,4.22
2022-08-08T16:17:02.017Z,6.25
2022-08-08T16:19:59.597Z,5.50
2022-08-08T16:22:30.537Z,4.97
2022-08-08T16:25:09.206Z,4.18
2022-08-08T16:27:36.948Z,6.45
2022-08-08T16:30:13.060Z,3.97
2022-08-08T16:32:42.287Z,4.57
2022-08-08T16:35:10.143Z,3.00
2022-08-08T16:37:41.680Z,4.80
2022-08-08T16:40:14.307Z,4.28
2022-08-08T16:42:51.959Z,5.78
2022-08-08T16:46:42.844Z,3.72
2022-08-08T16:48:09.349Z,2.58
2022-08-08T16:50:40.725Z,3.25
2022-08-08T16:55:03.144Z,2.53
2022-08-08T16:55:57.735Z,4.10
2022-08-08T16:58:29.291Z,4.53
2022-08-08T17:01:05.660Z,2.10
2022-08-08T17:03:57.823Z,5.80
2022-08-08T17:06:37.221Z,2.95
2022-08-08T17:09:07.423Z,2.40
2022-08-08T17:11:47.943Z,1.95
2022-08-08T17:14:19.208Z,3.72
2022-08-08T17:16:57.441Z,2.38
2022-08-08T17:19:27.423Z,3.85
2022-08-08T17:21:56.597Z,4.70
2022-08-08T17:24:27.802Z,5.97
2022-08-08T17:26:57.917Z,3.10
2022-08-08T17:29:27.686Z,5.25
2022-08-08T17:31:57.734Z,4.97
2022-08-08T17:34:54.461Z,4.18
2022-08-08T17:37:13.628Z,4.57
2022-08-08T17:40:04.266Z,4.78
2022-08-08T17:42:28.645Z,7.28
2022-08-08T17:44:58.269Z,7.55
2022-08-08T17:47:28.071Z,7.65
2022-08-08T17:50:06.609Z,2.58
2022-08-08T17:52:35.363Z,7.88
2022-08-08T17:56:06.972Z,8.82
2022-08-08T17:57:53.613Z,5.47
2022-08-08T18:00:25.817Z,3.22
2022-08-08T18:03:07.603Z,4.38
2022-08-08T18:05:48.669Z,6.22
2022-08-08T18:08:24.690Z,4.10
2022-08-08T18:11:08.114Z,4.72
2022-08-08T18:13:41.646Z,3.78
2022-08-08T18:16:10.524Z,4.82
2022-08-08T18:18:45.206Z,2.60
2022-08-08T18:21:35.513Z,2.92
2022-08-08T18:24:07.425Z,3.97
2022-08-08T18:26:46.604Z,2.80
2022-08-08T18:29:40.408Z,2.85
2022-08-08T18:32:10.075Z,3.35
2022-08-08T18:34:40.333Z,3.85
2022-08-08T18:39:44.800Z,4.63
2022-08-08T18:42:16.462Z,2.70
2022-08-08T18:44:54.737Z,4.80
2022-08-08T18:47:26.398Z,2.40
2022-08-08T18:49:58.356Z,3.63
2022-08-08T18:52:29.662Z,3.92
2022-08-08T18:55:00.809Z,1.92
2022-08-08T18:57:42.038Z,3.03
2022-08-08T19:02:55.411Z,3.30
2022-08-08T19:05:48.648Z,4.97
2022-08-08T19:08:24.732Z,4.13
2022-08-08T19:11:01.243Z,1.75
2022-08-08T19:13:38.439Z,5.68
2022-08-08T19:16:20.130Z,3.05
2022-08-08T19:19:00.399Z,3.50
2022-08-08T19:21:33.551Z,3.67
2022-08-08T19:24:38.066Z,4.13
2022-08-08T19:27:06.605Z,1.88
2022-08-08T19:29:35.622Z,3.33
2022-08-08T19:32:12.755Z,3.05
2022-08-08T19:37:16.363Z,3.60
2022-08-08T19:39:45.640Z,2.38
2022-08-08T19:42:13.563Z,6.10
2022-08-08T19:44:43.194Z,4.85
2022-08-08T19:47:14.356Z,3.05
2022-08-08T19:49:43.193Z,5.43
2022-08-08T19:52:13.368Z,4.78
2022-08-08T19:54:43.105Z,3.20
2022-08-08T19:57:11.261Z,2.50
2022-08-08T19:59:42.038Z,4.28
2022-08-08T20:02:10.634Z,4.32
2022-08-08T20:04:38.594Z,3.60
2022-08-08T20:08:29.786Z,2.80
2022-08-08T20:09:57.092Z,6.28
2022-08-08T20:12:32.270Z,4.95
2022-08-08T20:15:14.819Z,4.18
2022-08-08T20:17:46.829Z,4.47
2022-08-08T20:20:19.734Z,3.85
2022-08-08T20:22:53.840Z,2.80
2022-08-08T20:25:21.668Z,6.30
2022-08-08T20:27:50.541Z,2.33
2022-08-08T20:30:52.357Z,2.97
2022-08-08T20:33:18.738Z,6.28
2022-08-08T20:35:58.425Z,2.40
2022-08-08T20:38:32.575Z,6.85
2022-08-08T20:41:15.375Z,4.65
2022-08-08T20:43:49.341Z,5.22
2022-08-08T20:46:20.679Z,3.92
2022-08-08T20:48:51.389Z,3.30
2022-08-08T20:51:18.604Z,5.68
2022-08-08T20:53:59.966Z,4.00
2022-08-08T20:56:35.364Z,4.00
2022-08-08T20:59:06.138Z,3.00
2022-08-08T21:02:06.797Z,2.88
2022-08-08T21:04:20.919Z,4.80
2022-08-08T21:06:53.143Z,4.40
2022-08-08T21:09:21.794Z,4.65
2022-08-08T21:11:52.052Z,3.38
2022-08-08T21:14:30.351Z,8.70
2022-08-08T21:17:01.393Z,4.78
2022-08-08T21:19:44.572Z,5.07
2022-08-08T21:22:15.234Z,5.43
2022-08-08T21:24:53.504Z,7.20
2022-08-08T21:28:05.082Z,5.63
2022-08-08T21:30:18.735Z,7.40
2022-08-08T21:32:51.981Z,3.30
2022-08-08T21:36:16.156Z,4.07
2022-08-08T21:38:17.233Z,5.15
2022-08-08T21:40:56.257Z,8.05
2022-08-08T21:43:34.159Z,5.10
2022-08-08T21:48:08.148Z,6.15
2022-08-08T21:48:57.758Z,6.72
2022-08-08T21:54:18.217Z,6.20
2022-08-08T21:54:51.565Z,7.68
2022-08-08T21:57:08.203Z,5.38
2022-08-08T22:00:01.751Z,4.80
2022-08-08T22:02:24.259Z,5.25
2022-08-08T22:04:56.128Z,5.55
2022-08-08T22:07:40.106Z,4.45
2022-08-08T22:10:18.681Z,5.50
2022-08-08T22:13:17.356Z,5.90
2022-08-08T22:15:59.025Z,3.80
2022-08-08T22:18:34.457Z,4.73
2022-08-08T22:21:14.069Z,5.45
2022-08-08T22:23:50.445Z,6.22
2022-08-08T22:26:29.599Z,4.70
2022-08-08T22:29:13.485Z,7.50
2022-08-08T22:31:58.939Z,5.05
2022-08-08T22:34:39.527Z,5.85
2022-08-08T22:37:27.513Z,6.93
2022-08-08T22:40:00.918Z,4.47
2022-08-08T22:42:31.708Z,6.10
2022-08-08T22:45:05.208Z,5.25
2022-08-08T22:47:38.437Z,5.80
2022-08-08T22:50:26.535Z,5.63
2022-08-08T22:54:15.655Z,5.35
2022-08-08T22:55:58.589Z,5.18
2022-08-08T22:58:31.189Z,6.30
2022-08-08T23:01:02.214Z,4.50
2022-08-08T23:03:54.709Z,6.68
2022-08-08T23:06:24.099Z,4.68
2022-08-08T23:08:54.804Z,5.93
2022-08-08T23:11:31.058Z,6.45
2022-08-08T23:14:12.437Z,6.60
2022-08-08T23:16:43.560Z,6.93
2022-08-08T23:19:11.680Z,8.38
2022-08-08T23:21:39.077Z,6.35
2022-08-08T23:24:06.946Z,6.53
2022-08-08T23:26:34.392Z,7.03
2022-08-08T23:29:02.352Z,7.18
2022-08-08T23:31:29.223Z,9.00
2022-08-08T23:34:16.377Z,8.45
2022-08-08T23:36:44.923Z,8.63
2022-08-08T23:39:13.233Z,8.30
2022-08-08T23:41:45.804Z,7.75
2022-08-08T23:44:14.634Z,8.60
2022-08-08T23:48:59.772Z,7.72
2022-08-08T23:49:29.275Z,8.60
2022-08-08T23:52:05.544Z,10.05
2022-08-08T23:54:42.233Z,7.65
2022-08-08T23:57:26.431Z,7.63
